createdAt,value
2022-07-28T00:00:27.102Z,9.50
2022-07-28T00:02:54.654Z,13.65
2022-07-28T00:05:22.390Z,12.00
2022-07-28T00:07:53.023Z,10.50
2022-07-28T00:10:20.625Z,10.02
2022-07-28T00:12:48.474Z,8.82
2022-07-28T00:15:18.305Z,8.98
2022-07-28T00:17:46.397Z,16.50
2022-07-28T00:20:14.412Z,28.80
2022-07-28T00:22:44.542Z,16.02
2022-07-28T00:25:12.646Z,9.80
2022-07-28T00:27:40.890Z,10.15
2022-07-28T00:30:09.014Z,10.30
2022-07-28T00:32:37.706Z,10.57
2022-07-28T00:35:08.055Z,10.40
2022-07-28T00:37:38.646Z,9.95
2022-07-28T00:40:09.108Z,10.95
2022-07-28T00:42:36.668Z,10.82
2022-07-28T00:45:04.722Z,12.75
2022-07-28T00:47:33.663Z,10.80
2022-07-28T00:50:02.964Z,10.88
2022-07-28T00:52:33.385Z,12.52
2022-07-28T00:55:07.089Z,11.23
2022-07-28T00:57:35.263Z,10.25
2022-07-28T01:00:03.954Z,10.73
2022-07-28T01:02:32.432Z,12.90
2022-07-28T01:04:59.914Z,12.70
2022-07-28T01:07:42.730Z,10.10
2022-07-28T01:10:18.705Z,10.00
2022-07-28T01:13:06.354Z,10.80
2022-07-28T01:15:40.051Z,10.05
2022-07-28T01:18:26.699Z,9.50
2022-07-28T01:21:02.926Z,11.23
2022-07-28T01:23:33.570Z,10.60
2022-07-28T01:26:37.975Z,13.40
2022-07-28T01:29:46.414Z,12.43
2022-07-28T01:32:17.376Z,11.38
2022-07-28T01:34:52.713Z,11.25
2022-07-28T01:37:26.573Z,10.75
2022-07-28T01:39:56.916Z,11.00
2022-07-28T01:42:28.253Z,10.57
2022-07-28T01:44:56.283Z,10.18
2022-07-28T01:47:29.365Z,10.20
2022-07-28T01:50:00.615Z,9.80
2022-07-28T01:52:29.407Z,10.43
2022-07-28T01:54:58.436Z,9.73
2022-07-28T01:57:26.800Z,10.80
2022-07-28T01:59:54.722Z,10.68
2022-07-28T02:02:25.125Z,10.82
2022-07-28T02:04:53.692Z,10.80
2022-07-28T02:07:22.478Z,10.98
2022-07-28T02:09:53.422Z,10.77
2022-07-28T02:12:21.792Z,11.55
2022-07-28T02:14:50.688Z,11.98
2022-07-28T02:17:30.771Z,10.30
2022-07-28T02:19:58.887Z,10.98
2022-07-28T02:22:27.972Z,11.27
2022-07-28T02:24:55.853Z,11.60
2022-07-28T02:27:51.112Z,11.07
2022-07-28T02:30:25.726Z,10.23
2022-07-28T02:33:11.845Z,9.93
2022-07-28T02:35:53.942Z,10.02
2022-07-28T02:38:29.021Z,10.10
2022-07-28T02:41:10.997Z,9.05
2022-07-28T02:43:45.799Z,9.30
2022-07-28T02:46:20.400Z,9.60
2022-07-28T02:48:50.955Z,9.80
2022-07-28T02:51:19.252Z,10.18
2022-07-28T02:53:47.029Z,10.57
2022-07-28T02:56:16.671Z,10.98
2022-07-28T02:58:45.906Z,10.15
2022-07-28T03:01:14.613Z,12.48
2022-07-28T03:03:44.125Z,11.52
2022-07-28T03:06:12.098Z,12.55
2022-07-28T03:08:39.949Z,13.65
2022-07-28T03:11:13.220Z,13.50
2022-07-28T03:13:43.724Z,15.80
2022-07-28T03:16:11.346Z,14.73
2022-07-28T03:18:38.710Z,14.60
2022-07-28T03:21:06.880Z,11.68
2022-07-28T03:23:40.765Z,12.27
2022-07-28T03:26:23.544Z,13.10
2022-07-28T03:28:53.500Z,14.00
2022-07-28T03:31:22.211Z,13.50
2022-07-28T03:33:50.008Z,13.10
2022-07-28T03:36:25.147Z,13.68
2022-07-28T03:38:59.361Z,12.95
2022-07-28T03:41:27.703Z,13.27
2022-07-28T03:43:55.848Z,12.40
2022-07-28T03:46:23.529Z,10.93
2022-07-28T03:48:51.933Z,10.98
2022-07-28T03:51:20.071Z,11.75
2022-07-28T03:53:47.592Z,11.75
2022-07-28T03:56:15.800Z,12.10
2022-07-28T03:58:43.785Z,11.65
2022-07-28T04:01:14.145Z,12.20
2022-07-28T04:03:44.259Z,11.20
2022-07-28T04:06:15.760Z,24.30
2022-07-28T04:08:44.258Z,14.23
2022-07-28T04:11:15.811Z,12.02
2022-07-28T04:13:44.893Z,11.65
2022-07-28T04:16:12.501Z,12.55
2022-07-28T04:18:42.785Z,12.25
2022-07-28T04:21:10.717Z,11.85
2022-07-28T04:23:38.115Z,12.80
2022-07-28T04:26:06.244Z,11.38
2022-07-28T04:28:34.308Z,11.65
2022-07-28T04:31:03.023Z,11.82
2022-07-28T04:33:31.144Z,11.85
2022-07-28T04:35:58.634Z,24.88
2022-07-28T04:38:26.638Z,13.43
2022-07-28T04:40:54.088Z,14.02
2022-07-28T04:43:22.921Z,13.73
2022-07-28T04:45:54.626Z,12.88
2022-07-28T04:48:25.826Z,13.43
2022-07-28T04:50:53.983Z,13.82
2022-07-28T04:53:22.865Z,13.07
2022-07-28T04:55:53.432Z,12.43
2022-07-28T04:58:23.306Z,12.05
2022-07-28T05:00:51.369Z,11.38
2022-07-28T05:03:23.447Z,11.95
2022-07-28T05:05:54.662Z,12.13
2022-07-28T05:08:25.692Z,13.45
2022-07-28T05:10:56.302Z,11.80
2022-07-28T05:13:24.187Z,10.05
2022-07-28T05:15:57.148Z,10.38
2022-07-28T05:18:26.022Z,10.10
2022-07-28T05:20:55.756Z,11.02
2022-07-28T05:23:23.214Z,10.88
2022-07-28T05:25:52.371Z,8.68
2022-07-28T05:28:19.888Z,9.23
2022-07-28T05:30:48.151Z,10.48
2022-07-28T05:33:16.123Z,8.20
2022-07-28T05:35:52.610Z,7.25
2022-07-28T05:38:20.703Z,7.40
2022-07-28T05:40:49.492Z,7.50
2022-07-28T05:46:05.886Z,6.10
2022-07-28T05:48:34.073Z,6.18
2022-07-28T05:51:03.384Z,5.15
2022-07-28T05:53:31.223Z,5.82
2022-07-28T05:56:00.915Z,5.57
2022-07-28T05:58:31.164Z,5.90
2022-07-28T06:01:00.636Z,5.00
2022-07-28T06:03:32.285Z,4.50
2022-07-28T06:06:14.592Z,4.40
2022-07-28T06:08:47.778Z,4.50
2022-07-28T06:11:22.393Z,5.15
2022-07-28T06:13:58.998Z,5.07
2022-07-28T06:16:42.346Z,5.10
2022-07-28T06:19:10.100Z,5.32
2022-07-28T06:21:37.707Z,7.05
2022-07-28T06:24:07.929Z,6.63
2022-07-28T06:26:43.680Z,8.60
2022-07-28T06:29:13.098Z,10.02
2022-07-28T06:31:44.718Z,9.70
2022-07-28T06:34:16.213Z,11.50
2022-07-28T06:36:44.587Z,12.43
2022-07-28T06:39:16.201Z,12.63
2022-07-28T06:41:50.674Z,13.35
2022-07-28T06:44:23.114Z,14.20
2022-07-28T06:46:52.365Z,14.70
2022-07-28T06:49:20.634Z,19.20
2022-07-28T06:51:48.884Z,19.00
2022-07-28T06:54:21.449Z,19.30
2022-07-28T06:56:50.479Z,16.17
2022-07-28T06:59:18.243Z,17.15
2022-07-28T07:01:47.249Z,17.33
2022-07-28T07:04:15.168Z,14.50
2022-07-28T07:06:44.553Z,11.75
2022-07-28T07:09:12.281Z,9.43
2022-07-28T07:11:41.648Z,8.85
2022-07-28T07:14:09.424Z,7.60
2022-07-28T07:16:38.532Z,10.23
2022-07-28T07:19:12.594Z,8.68
2022-07-28T07:21:44.629Z,9.75
2022-07-28T07:24:14.742Z,10.32
2022-07-28T07:26:42.945Z,8.73
2022-07-28T07:29:11.456Z,6.93
2022-07-28T07:31:40.048Z,7.68
2022-07-28T07:34:08.960Z,6.97
2022-07-28T07:36:37.185Z,6.22
2022-07-28T07:39:06.860Z,6.82
2022-07-28T07:41:34.659Z,7.30
2022-07-28T07:44:02.321Z,6.50
2022-07-28T07:46:30.322Z,6.20
2022-07-28T07:48:58.378Z,6.18
2022-07-28T07:51:26.121Z,6.30
2022-07-28T07:53:55.016Z,5.88
2022-07-28T07:56:22.976Z,5.97
2022-07-28T07:58:56.852Z,6.25
2022-07-28T08:01:25.364Z,8.00
2022-07-28T08:03:53.727Z,5.72
2022-07-28T08:06:26.321Z,5.32
2022-07-28T08:08:55.174Z,4.80
2022-07-28T08:11:25.901Z,5.18
2022-07-28T08:13:53.936Z,5.10
2022-07-28T08:16:24.962Z,4.97
2022-07-28T08:18:53.956Z,5.38
2022-07-28T08:21:22.503Z,5.28
2022-07-28T08:23:51.075Z,5.00
2022-07-28T08:26:19.606Z,5.43
2022-07-28T08:28:47.542Z,4.90
2022-07-28T08:31:17.896Z,4.90
2022-07-28T08:33:53.709Z,5.32
2022-07-28T08:36:22.863Z,5.25
2022-07-28T08:38:54.405Z,5.28
2022-07-28T08:41:42.029Z,5.35
2022-07-28T08:44:12.263Z,4.70
2022-07-28T08:46:43.155Z,5.05
2022-07-28T08:49:14.946Z,5.20
2022-07-28T08:51:45.177Z,4.70
2022-07-28T08:54:17.119Z,4.85
2022-07-28T08:56:48.120Z,5.05
2022-07-28T08:59:16.196Z,5.50
2022-07-28T09:01:50.641Z,5.32
2022-07-28T09:04:21.462Z,5.10
2022-07-28T09:06:52.481Z,5.22
2022-07-28T09:09:21.751Z,5.90
2022-07-28T09:11:53.763Z,5.97
2022-07-28T09:14:26.850Z,5.40
2022-07-28T09:16:55.263Z,5.20
2022-07-28T09:19:24.145Z,5.40
2022-07-28T09:21:56.911Z,5.38
2022-07-28T09:24:40.539Z,5.25
2022-07-28T09:27:12.288Z,6.80
2022-07-28T09:29:45.176Z,4.80
2022-07-28T09:32:19.031Z,5.35
2022-07-28T09:34:51.869Z,5.32
2022-07-28T09:37:27.712Z,5.32
2022-07-28T09:40:03.905Z,5.72
2022-07-28T09:42:46.488Z,5.80
2022-07-28T09:45:23.431Z,5.32
2022-07-28T09:48:11.959Z,5.60
2022-07-28T09:50:42.297Z,5.32
2022-07-28T09:53:32.532Z,5.75
2022-07-28T10:27:05.861Z,5.30
2022-07-28T10:29:34.299Z,5.25
2022-07-28T10:32:05.976Z,5.90
2022-07-28T10:34:35.735Z,5.00
2022-07-28T10:37:08.059Z,6.72
2022-07-28T10:39:42.426Z,5.22
2022-07-28T10:42:13.236Z,5.45
2022-07-28T10:44:43.635Z,5.35
2022-07-28T10:47:18.461Z,4.80
2022-07-28T10:49:49.116Z,5.43
2022-07-28T10:52:46.283Z,5.22
2022-07-28T10:55:52.491Z,6.05
2022-07-28T10:58:36.880Z,8.38
2022-07-28T11:01:06.414Z,5.25
2022-07-28T11:03:40.265Z,5.78
2022-07-28T11:06:27.028Z,6.13
2022-07-28T11:09:00.834Z,5.72
2022-07-28T11:11:50.289Z,6.07
2022-07-28T11:14:37.090Z,5.68
2022-07-28T11:17:10.075Z,6.03
2022-07-28T11:20:16.428Z,6.30
2022-07-28T11:22:34.199Z,6.72
2022-07-28T11:25:18.667Z,5.57
2022-07-28T11:27:53.222Z,5.78
2022-07-28T11:30:36.177Z,5.60
2022-07-28T11:33:07.217Z,6.45
2022-07-28T11:35:42.371Z,5.75
2022-07-28T11:38:12.644Z,5.72
2022-07-28T11:40:43.173Z,6.32
2022-07-28T11:43:37.660Z,6.00
2022-07-28T11:46:09.988Z,5.88
2022-07-28T11:48:41.762Z,5.90
2022-07-28T11:51:14.632Z,5.85
2022-07-28T11:53:48.185Z,5.88
2022-07-28T11:56:38.165Z,5.88
2022-07-28T11:59:16.615Z,7.40
2022-07-28T12:01:56.307Z,6.20
2022-07-28T12:04:27.967Z,6.25
2022-07-28T12:06:56.162Z,6.63
2022-07-28T12:09:41.116Z,7.15
2022-07-28T12:12:10.290Z,6.22
2022-07-28T12:14:39.749Z,7.05
2022-07-28T12:17:09.702Z,6.78
2022-07-28T12:19:40.833Z,8.60
2022-07-28T12:22:16.497Z,6.93
2022-07-28T12:24:57.133Z,6.10
2022-07-28T12:27:29.379Z,6.45
2022-07-28T12:30:00.455Z,6.28
2022-07-28T12:32:36.356Z,9.30
2022-07-28T12:35:04.459Z,6.22
2022-07-28T12:37:36.031Z,5.53
2022-07-28T12:40:15.275Z,5.93
2022-07-28T12:42:42.942Z,6.22
2022-07-28T12:45:10.671Z,5.85
2022-07-28T12:47:42.010Z,6.88
2022-07-28T12:50:18.099Z,6.65
2022-07-28T12:53:04.744Z,7.05
2022-07-28T12:55:33.412Z,7.22
2022-07-28T12:58:03.475Z,6.50
2022-07-28T13:00:34.238Z,6.22
2022-07-28T13:03:22.157Z,7.10
2022-07-28T13:06:05.475Z,6.80
2022-07-28T13:08:55.256Z,6.57
2022-07-28T13:11:47.523Z,7.60
2022-07-28T13:14:16.108Z,6.75
2022-07-28T13:16:44.661Z,6.93
2022-07-28T13:19:24.043Z,7.43
2022-07-28T13:22:01.537Z,8.02
2022-07-28T13:24:32.628Z,8.30
2022-07-28T13:27:01.767Z,10.73
2022-07-28T13:29:32.855Z,7.80
2022-07-28T13:32:01.300Z,7.82
2022-07-28T13:34:28.905Z,8.18
2022-07-28T13:36:57.188Z,8.75
2022-07-28T13:39:25.195Z,8.55
2022-07-28T13:41:58.516Z,9.18
2022-07-28T13:44:30.964Z,9.80
2022-07-28T13:46:59.680Z,9.73
2022-07-28T13:49:31.826Z,8.85
2022-07-28T13:52:01.390Z,6.53
2022-07-28T13:54:29.159Z,5.22
2022-07-28T13:56:59.579Z,5.25
2022-07-28T13:59:26.987Z,5.20
2022-07-28T14:01:57.898Z,5.65
2022-07-28T14:04:25.706Z,4.90
2022-07-28T14:06:54.859Z,4.68
2022-07-28T14:09:22.410Z,4.70
2022-07-28T14:11:53.972Z,5.18
2022-07-28T14:14:25.122Z,5.30
2022-07-28T14:16:55.284Z,4.80
2022-07-28T14:19:38.917Z,4.93
2022-07-28T14:22:13.855Z,5.25
2022-07-28T14:24:43.004Z,5.35
2022-07-28T14:27:11.500Z,5.00
2022-07-28T14:29:39.726Z,5.20
2022-07-28T14:32:10.947Z,5.57
2022-07-28T14:34:40.277Z,5.05
2022-07-28T14:37:10.817Z,4.82
2022-07-28T14:39:38.785Z,4.85
2022-07-28T14:42:07.450Z,4.90
2022-07-28T14:44:35.818Z,4.68
2022-07-28T14:47:07.501Z,5.13
2022-07-28T14:49:36.508Z,4.82
2022-07-28T14:52:04.559Z,5.03
2022-07-28T14:54:33.809Z,5.30
2022-07-28T14:57:01.454Z,5.15
2022-07-28T14:59:29.522Z,5.55
2022-07-28T15:01:57.999Z,4.78
2022-07-28T15:04:27.156Z,4.90
2022-07-28T15:06:55.013Z,4.93
2022-07-28T15:09:27.981Z,5.10
2022-07-28T15:12:02.942Z,4.90
2022-07-28T15:14:30.771Z,5.20
2022-07-28T15:17:00.670Z,5.80
2022-07-28T15:19:35.851Z,5.25
2022-07-28T15:22:04.227Z,5.38
2022-07-28T15:24:33.518Z,5.43
2022-07-28T15:27:02.426Z,5.40
2022-07-28T15:29:35.447Z,5.43
2022-07-28T15:32:06.758Z,5.55
2022-07-28T15:34:38.658Z,5.72
2022-07-28T15:37:08.769Z,5.78
2022-07-28T15:39:43.246Z,5.22
2022-07-28T15:42:12.902Z,5.32
2022-07-28T15:44:40.537Z,4.75
2022-07-28T15:47:08.607Z,5.38
2022-07-28T15:49:36.857Z,5.07
2022-07-28T15:52:04.680Z,5.07
2022-07-28T15:54:37.883Z,4.85
2022-07-28T16:05:51.324Z,4.85
2022-07-28T16:11:27.288Z,5.25
2022-07-28T16:14:25.910Z,5.20
2022-07-28T16:20:02.767Z,4.93
2022-07-28T16:25:30.999Z,5.38
2022-07-28T16:34:03.189Z,5.60
2022-07-28T16:36:40.177Z,5.13
2022-07-28T16:39:11.418Z,5.05
2022-07-28T16:44:29.995Z,5.43
2022-07-28T17:19:32.956Z,6.90
2022-07-28T17:22:01.902Z,8.85
2022-07-28T17:24:34.266Z,7.63
2022-07-28T17:29:49.346Z,7.28
2022-07-28T17:32:17.688Z,6.28
2022-07-28T17:34:45.462Z,5.30
2022-07-28T17:37:19.269Z,4.82
2022-07-28T17:39:53.411Z,4.93
2022-07-28T17:42:21.274Z,4.50
2022-07-28T17:44:53.417Z,4.95
2022-07-28T17:47:35.992Z,6.05
2022-07-28T17:50:04.852Z,4.88
2022-07-28T17:52:35.755Z,4.30
2022-07-28T17:55:24.103Z,4.20
2022-07-28T17:57:55.117Z,3.95
2022-07-28T18:00:23.779Z,3.92
2022-07-28T18:03:11.132Z,3.83
2022-07-28T18:05:43.558Z,4.15
2022-07-28T18:08:11.829Z,3.92
2022-07-28T18:10:52.830Z,3.83
2022-07-28T18:26:09.014Z,4.05
2022-07-28T18:28:50.994Z,3.75
2022-07-28T18:34:25.360Z,4.10
2022-07-28T18:37:02.012Z,4.90
2022-07-28T18:39:44.224Z,4.00
2022-07-28T18:48:21.289Z,9.52
2022-07-28T18:59:51.948Z,5.32
2022-07-28T19:02:23.070Z,5.50
2022-07-28T19:05:23.403Z,5.20
2022-07-28T19:07:53.110Z,5.07
2022-07-28T19:10:24.091Z,5.20
2022-07-28T19:13:12.983Z,5.18
2022-07-28T19:15:44.502Z,5.15
2022-07-28T19:18:20.719Z,5.00
2022-07-28T19:20:48.469Z,5.13
2022-07-28T19:23:16.087Z,6.35
2022-07-28T19:25:51.777Z,5.72
2022-07-28T19:28:19.356Z,5.60
2022-07-28T19:31:00.788Z,5.90
2022-07-28T19:33:43.833Z,5.88
2022-07-28T19:36:14.260Z,5.85
2022-07-28T19:38:42.216Z,6.20
2022-07-28T19:41:10.801Z,6.00
2022-07-28T19:43:38.234Z,6.13
2022-07-28T19:46:06.260Z,5.70
2022-07-28T19:48:37.391Z,5.53
2022-07-28T19:51:05.228Z,5.60
2022-07-28T19:53:35.715Z,5.68
2022-07-28T19:56:09.037Z,5.45
2022-07-28T19:58:37.559Z,6.40
2022-07-28T20:01:06.299Z,6.10
2022-07-28T20:04:00.564Z,5.72
2022-07-28T20:06:25.314Z,6.03
2022-07-28T20:09:00.389Z,5.90
2022-07-28T20:11:36.486Z,5.97
2022-07-28T20:14:04.253Z,6.22
2022-07-28T20:16:33.262Z,6.75
2022-07-28T20:19:01.177Z,6.15
2022-07-28T20:21:29.220Z,6.43
2022-07-28T20:24:06.746Z,6.47
2022-07-28T20:26:34.357Z,6.28
2022-07-28T20:29:02.009Z,6.15
2022-07-28T20:31:30.082Z,6.80
2022-07-28T20:33:58.085Z,6.95
2022-07-28T20:36:29.643Z,6.55
2022-07-28T20:38:57.651Z,6.97
2022-07-28T20:41:25.309Z,6.72
2022-07-28T20:44:27.288Z,7.40
2022-07-28T20:46:49.980Z,6.72
2022-07-28T20:49:17.603Z,6.85
2022-07-28T20:51:50.842Z,6.82
2022-07-28T20:54:22.504Z,6.72
2022-07-28T20:56:50.622Z,6.55
2022-07-28T20:59:18.788Z,6.82
2022-07-28T21:01:46.411Z,6.55
2022-07-28T21:04:14.235Z,6.35
2022-07-28T21:06:51.064Z,7.05
2022-07-28T21:09:21.572Z,6.63
2022-07-28T21:11:49.633Z,6.72
2022-07-28T21:14:17.831Z,7.20
2022-07-28T21:16:45.435Z,7.00
2022-07-28T21:19:16.892Z,7.07
2022-07-28T21:21:45.500Z,7.10
2022-07-28T21:24:14.859Z,6.25
2022-07-28T21:26:43.435Z,6.07
2022-07-28T21:32:04.810Z,6.15
2022-07-28T21:34:32.090Z,6.03
2022-07-28T21:37:06.768Z,14.13
2022-07-28T21:39:35.161Z,5.88
2022-07-28T21:42:05.794Z,5.72
2022-07-28T21:44:38.333Z,5.55
2022-07-28T21:47:06.334Z,4.97
2022-07-28T21:49:33.731Z,5.10
2022-07-28T21:52:01.483Z,4.60
2022-07-28T21:54:29.156Z,4.90
2022-07-28T21:56:57.442Z,4.32
2022-07-28T21:59:24.831Z,4.80
2022-07-28T22:01:52.726Z,3.88
2022-07-28T22:04:21.049Z,4.05
2022-07-28T22:06:49.311Z,4.03
2022-07-28T22:09:16.788Z,3.90
2022-07-28T22:11:48.200Z,4.13
2022-07-28T22:14:16.245Z,3.63
2022-07-28T22:16:46.354Z,3.83
2022-07-28T22:19:15.607Z,6.38
2022-07-28T22:21:42.944Z,4.10
2022-07-28T22:24:10.371Z,3.50
2022-07-28T22:26:40.553Z,3.40
2022-07-28T22:29:08.990Z,4.10
2022-07-28T22:31:36.513Z,4.13
2022-07-28T22:34:04.239Z,3.63
2022-07-28T22:36:32.268Z,4.47
2022-07-28T22:39:00.371Z,4.30
2022-07-28T22:41:27.801Z,4.43
2022-07-28T22:43:55.339Z,5.93
2022-07-28T22:46:22.834Z,6.55
2022-07-28T22:48:50.278Z,6.78
2022-07-28T22:51:18.409Z,6.82
2022-07-28T22:53:45.771Z,6.78
2022-07-28T22:56:25.853Z,6.75
2022-07-28T22:58:54.205Z,7.30
2022-07-28T23:01:23.312Z,8.10
2022-07-28T23:03:52.214Z,7.35
2022-07-28T23:06:21.876Z,7.45
2022-07-28T23:08:49.354Z,7.88
2022-07-28T23:11:19.055Z,7.72
2022-07-28T23:13:46.644Z,6.97
2022-07-28T23:16:16.245Z,6.60
2022-07-28T23:18:44.967Z,7.22
2022-07-28T23:21:12.822Z,6.18
2022-07-28T23:23:41.583Z,5.82
2022-07-28T23:26:09.468Z,7.15
2022-07-28T23:28:37.387Z,6.90
2022-07-28T23:31:07.067Z,6.07
2022-07-28T23:33:55.855Z,6.63
2022-07-28T23:36:26.646Z,6.50
2022-07-28T23:38:57.143Z,6.25
2022-07-28T23:41:24.710Z,5.85
2022-07-28T23:43:52.432Z,5.93
2022-07-28T23:46:20.071Z,5.95
2022-07-28T23:48:47.723Z,5.50
2022-07-28T23:51:15.164Z,5.10
2022-07-28T23:53:43.714Z,4.45
2022-07-28T23:56:11.390Z,5.40
2022-07-28T23:58:38.664Z,4.60
